Rejestracja

Wszystkie dane podawane są w czasie UTC za wyjątkiem miejsc gdzie jest jednoznacznie podane, że jest inaczej. Dane podawane w serwisie mają charakter informacyjny!!!
Informacje w sprawie dostępu do serwisu pod numerem tel. +48 261-828-138
Informacja dla żołnierzy i pracowników wojska: Prosimy o niezwłoczną zmianę adresu e-mail w profilu użytkownika na pocztę w domenie @ron.mil.pl

Aktualna Pogoda
 
Pogoda w Polsce
12°C Szczecin 14°C Suwałki 15°C Warszawa 15°C Poznan
16°C Opole 14°C Kraków 18°C Rzeszów
Więcej miast w Polsce

Pogoda w Europie
13°C Berlin 11°C Paryz 12°C Bruksela 4°C Oslo
11°C Praga 19°C Zagrzeb
Więcej miast w Europie

Metary wojskowe test
METAR EPBC 210800Z 15003KT CAVOK 17/11 Q1018=
METAR EPCE 210800Z 09008KT 2300 BR OVC002 13/12 Q1017 RMK 126 099 8/8=
METAR EPDA 210800Z 07009KT 7000 FEW007 SCT/// 14/12 Q1017 RMK 135 090 4/1=
METAR EPDE 210800Z 11002KT CAVOK 13/11 Q1019 RMK 129 088 3/3=
METAR EPIR 210800Z VRB02KT 5000 BR NSC 12/12 Q1017 RMK 122 097 3/3=
METAR EPKS 210800Z VRB02KT CAVOK 14/14 Q1017 RMK 137 100 3/3=
METAR EPLK 210800Z 17004KT CAVOK 15/13 Q1018 RMK 149 087 3/3=
METAR EPLY 210800Z 20004KT CAVOK 17/13 Q1017 RMK 168 075 4/4=
METAR EPMB 210800Z VRB02KT 0500 R25/0500 FG SCT100 11/11 Q1018 RMK 107 100 3/3=
METAR EPMI 210800Z 14004KT 6000 FEW200 13/12 Q1017 RMK 132 091 2/2=
METAR EPMM 210800Z VRB02KT CAVOK 16/12 Q1018 RMK 164 077 0/0=
METAR EPNA 210800Z 12001KT 4000 BR FEW100 BKN200 15/12 Q1017 RMK 149 084 5/2=
METAR EPOK 210800Z 08003KT 5000 BR BKN137 14/12 Q1018 RMK 137 090 7/7=
METAR EPPR 210800Z 36002KT 0800 FG OVC003 13/13 Q1018 RMK 129 098 8/8=
METAR EPPW 210800Z 12002KT 8000 NSC 15/12 Q1017 RMK 145 084 4/4=
METAR EPSN 210800Z VRB03KT CAVOK 15/14 Q1016 RMK 148 098 2/2=
METAR EPTM 210800Z 14002KT CAVOK 14/11 Q1018 RMK 138 082 4/4=


 

Prawa autorskie©2007 SSH SZ RP. Wszelkie prawa zastrzeżone.